sensor_id;sensor_type;location;lat;lon;timestamp;P1;durP1;ratioP1;P2;durP2;ratioP2
21671;SDS011;10997;52.242;8.168;2023-07-02T00:04:16;12.98;;;8.23;;
21671;SDS011;10997;52.242;8.168;2023-07-02T00:09:19;12.82;;;8.48;;
21671;SDS011;10997;52.242;8.168;2023-07-02T00:14:20;17.70;;;10.15;;
21671;SDS011;10997;52.242;8.168;2023-07-02T00:19:21;13.18;;;10.35;;
21671;SDS011;10997;52.242;8.168;2023-07-02T00:24:22;14.70;;;11.65;;
21671;SDS011;10997;52.242;8.168;2023-07-02T00:29:22;17.95;;;12.45;;
21671;SDS011;10997;52.242;8.168;2023-07-02T00:34:23;17.83;;;12.07;;
21671;SDS011;10997;52.242;8.168;2023-07-02T00:39:24;18.90;;;12.38;;
21671;SDS011;10997;52.242;8.168;2023-07-02T00:44:24;19.45;;;14.07;;
21671;SDS011;10997;52.242;8.168;2023-07-02T00:49:25;21.10;;;15.38;;
21671;SDS011;10997;52.242;8.168;2023-07-02T00:54:28;20.70;;;15.68;;
21671;SDS011;10997;52.242;8.168;2023-07-02T00:59:30;23.92;;;14.80;;
21671;SDS011;10997;52.242;8.168;2023-07-02T01:04:37;21.30;;;15.35;;
21671;SDS011;10997;52.242;8.168;2023-07-02T01:09:38;18.63;;;14.20;;
21671;SDS011;10997;52.242;8.168;2023-07-02T01:14:40;23.65;;;13.90;;
21671;SDS011;10997;52.242;8.168;2023-07-02T01:19:44;17.88;;;11.13;;
21671;SDS011;10997;52.242;8.168;2023-07-02T01:24:52;15.88;;;10.73;;
21671;SDS011;10997;52.242;8.168;2023-07-02T01:29:53;16.20;;;9.55;;
21671;SDS011;10997;52.242;8.168;2023-07-02T01:34:54;14.20;;;10.10;;
21671;SDS011;10997;52.242;8.168;2023-07-02T01:39:55;17.20;;;10.15;;
21671;SDS011;10997;52.242;8.168;2023-07-02T01:44:56;13.52;;;10.50;;
21671;SDS011;10997;52.242;8.168;2023-07-02T01:49:56;17.85;;;10.55;;
21671;SDS011;10997;52.242;8.168;2023-07-02T01:54:57;12.60;;;10.95;;
21671;SDS011;10997;52.242;8.168;2023-07-02T01:59:57;15.02;;;11.65;;
21671;SDS011;10997;52.242;8.168;2023-07-02T02:04:58;14.18;;;10.90;;
21671;SDS011;10997;52.242;8.168;2023-07-02T02:09:58;16.00;;;11.73;;
21671;SDS011;10997;52.242;8.168;2023-07-02T02:14:59;18.60;;;12.30;;
21671;SDS011;10997;52.242;8.168;2023-07-02T02:20:00;14.30;;;12.05;;
21671;SDS011;10997;52.242;8.168;2023-07-02T02:25:00;18.58;;;12.48;;
21671;SDS011;10997;52.242;8.168;2023-07-02T02:30:01;16.63;;;12.88;;
21671;SDS011;10997;52.242;8.168;2023-07-02T02:35:01;24.33;;;13.43;;
21671;SDS011;10997;52.242;8.168;2023-07-02T02:40:02;20.77;;;13.85;;
21671;SDS011;10997;52.242;8.168;2023-07-02T02:45:03;21.67;;;14.57;;
21671;SDS011;10997;52.242;8.168;2023-07-02T02:50:05;25.40;;;13.35;;
21671;SDS011;10997;52.242;8.168;2023-07-02T02:55:06;17.45;;;10.60;;
21671;SDS011;10997;52.242;8.168;2023-07-02T03:00:10;19.15;;;9.73;;
21671;SDS011;10997;52.242;8.168;2023-07-02T03:05:11;19.27;;;8.32;;
21671;SDS011;10997;52.242;8.168;2023-07-02T03:10:12;18.20;;;8.32;;
21671;SDS011;10997;52.242;8.168;2023-07-02T03:15:13;14.68;;;8.35;;
21671;SDS011;10997;52.242;8.168;2023-07-02T03:20:14;15.93;;;8.60;;
21671;SDS011;10997;52.242;8.168;2023-07-02T03:25:14;15.95;;;8.55;;
21671;SDS011;10997;52.242;8.168;2023-07-02T03:30:15;17.55;;;8.75;;
21671;SDS011;10997;52.242;8.168;2023-07-02T03:35:16;14.57;;;8.50;;
21671;SDS011;10997;52.242;8.168;2023-07-02T03:40:16;20.88;;;9.43;;
21671;SDS011;10997;52.242;8.168;2023-07-02T03:45:17;18.52;;;8.60;;
21671;SDS011;10997;52.242;8.168;2023-07-02T03:50:17;18.02;;;8.95;;
21671;SDS011;10997;52.242;8.168;2023-07-02T03:55:18;19.85;;;9.13;;
21671;SDS011;10997;52.242;8.168;2023-07-02T04:00:19;18.27;;;8.50;;
21671;SDS011;10997;52.242;8.168;2023-07-02T04:05:20;19.95;;;8.98;;
21671;SDS011;10997;52.242;8.168;2023-07-02T04:10:21;19.13;;;8.88;;
21671;SDS011;10997;52.242;8.168;2023-07-02T04:15:21;19.23;;;8.30;;
21671;SDS011;10997;52.242;8.168;2023-07-02T04:20:24;24.27;;;8.82;;
21671;SDS011;10997;52.242;8.168;2023-07-02T04:25:25;23.90;;;9.15;;
21671;SDS011;10997;52.242;8.168;2023-07-02T04:30:26;18.90;;;8.45;;
21671;SDS011;10997;52.242;8.168;2023-07-02T04:35:26;23.95;;;9.20;;
21671;SDS011;10997;52.242;8.168;2023-07-02T04:40:27;19.67;;;8.48;;
21671;SDS011;10997;52.242;8.168;2023-07-02T04:45:28;22.15;;;9.25;;
21671;SDS011;10997;52.242;8.168;2023-07-02T04:50:35;19.17;;;8.15;;
21671;SDS011;10997;52.242;8.168;2023-07-02T04:55:36;18.42;;;8.10;;
21671;SDS011;10997;52.242;8.168;2023-07-02T05:00:36;17.45;;;8.45;;
21671;SDS011;10997;52.242;8.168;2023-07-02T05:05:37;19.90;;;9.05;;
21671;SDS011;10997;52.242;8.168;2023-07-02T05:10:37;20.13;;;8.70;;
21671;SDS011;10997;52.242;8.168;2023-07-02T05:15:39;25.92;;;8.93;;
21671;SDS011;10997;52.242;8.168;2023-07-02T05:20:40;19.52;;;8.73;;
21671;SDS011;10997;52.242;8.168;2023-07-02T05:25:40;20.95;;;8.68;;
21671;SDS011;10997;52.242;8.168;2023-07-02T05:30:41;23.98;;;9.40;;
21671;SDS011;10997;52.242;8.168;2023-07-02T05:35:41;23.17;;;9.30;;
21671;SDS011;10997;52.242;8.168;2023-07-02T05:40:42;24.33;;;8.57;;
21671;SDS011;10997;52.242;8.168;2023-07-02T05:45:43;22.67;;;9.05;;
21671;SDS011;10997;52.242;8.168;2023-07-02T05:50:43;26.63;;;9.20;;
21671;SDS011;10997;52.242;8.168;2023-07-02T05:55:44;21.15;;;9.05;;
21671;SDS011;10997;52.242;8.168;2023-07-02T06:00:44;24.83;;;8.77;;
21671;SDS011;10997;52.242;8.168;2023-07-02T06:05:49;20.20;;;8.20;;
21671;SDS011;10997;52.242;8.168;2023-07-02T06:10:50;28.00;;;8.98;;
21671;SDS011;10997;52.242;8.168;2023-07-02T06:15:51;29.00;;;9.00;;
21671;SDS011;10997;52.242;8.168;2023-07-02T06:20:51;22.83;;;9.30;;
21671;SDS011;10997;52.242;8.168;2023-07-02T06:25:52;24.27;;;9.32;;
21671;SDS011;10997;52.242;8.168;2023-07-02T06:30:58;25.70;;;9.68;;
21671;SDS011;10997;52.242;8.168;2023-07-02T06:35:59;24.00;;;8.65;;
21671;SDS011;10997;52.242;8.168;2023-07-02T06:40:59;26.60;;;9.45;;
21671;SDS011;10997;52.242;8.168;2023-07-02T06:46:00;27.73;;;9.68;;
21671;SDS011;10997;52.242;8.168;2023-07-02T06:51:00;22.65;;;9.48;;
21671;SDS011;10997;52.242;8.168;2023-07-02T06:56:01;25.30;;;9.20;;
21671;SDS011;10997;52.242;8.168;2023-07-02T07:01:02;19.38;;;8.68;;
21671;SDS011;10997;52.242;8.168;2023-07-02T07:06:02;23.52;;;9.93;;
21671;SDS011;10997;52.242;8.168;2023-07-02T07:11:03;27.45;;;9.45;;
21671;SDS011;10997;52.242;8.168;2023-07-02T07:16:04;25.98;;;9.38;;
21671;SDS011;10997;52.242;8.168;2023-07-02T07:21:04;25.55;;;9.85;;
21671;SDS011;10997;52.242;8.168;2023-07-02T07:26:05;28.15;;;10.00;;
21671;SDS011;10997;52.242;8.168;2023-07-02T07:31:07;30.92;;;9.68;;
21671;SDS011;10997;52.242;8.168;2023-07-02T07:36:08;34.80;;;9.82;;
21671;SDS011;10997;52.242;8.168;2023-07-02T07:41:08;22.45;;;9.30;;
21671;SDS011;10997;52.242;8.168;2023-07-02T07:46:09;25.35;;;9.30;;
21671;SDS011;10997;52.242;8.168;2023-07-02T07:51:10;24.00;;;9.25;;
21671;SDS011;10997;52.242;8.168;2023-07-02T07:56:10;27.60;;;9.70;;
21671;SDS011;10997;52.242;8.168;2023-07-02T08:01:11;23.40;;;9.07;;
21671;SDS011;10997;52.242;8.168;2023-07-02T08:06:11;24.70;;;9.40;;
21671;SDS011;10997;52.242;8.168;2023-07-02T08:11:12;19.42;;;8.15;;
21671;SDS011;10997;52.242;8.168;2023-07-02T08:16:13;19.00;;;7.80;;
21671;SDS011;10997;52.242;8.168;2023-07-02T08:21:13;19.88;;;8.15;;
21671;SDS011;10997;52.242;8.168;2023-07-02T08:26:14;19.63;;;8.65;;
21671;SDS011;10997;52.242;8.168;2023-07-02T08:31:15;19.42;;;7.22;;
21671;SDS011;10997;52.242;8.168;2023-07-02T08:36:16;17.77;;;8.00;;
21671;SDS011;10997;52.242;8.168;2023-07-02T08:41:17;18.42;;;7.57;;
21671;SDS011;10997;52.242;8.168;2023-07-02T08:46:17;15.75;;;7.40;;
21671;SDS011;10997;52.242;8.168;2023-07-02T08:51:18;18.70;;;7.15;;
21671;SDS011;10997;52.242;8.168;2023-07-02T08:56:19;19.65;;;7.45;;
21671;SDS011;10997;52.242;8.168;2023-07-02T09:01:19;17.48;;;7.50;;
21671;SDS011;10997;52.242;8.168;2023-07-02T09:06:20;17.95;;;7.60;;
21671;SDS011;10997;52.242;8.168;2023-07-02T09:11:21;15.75;;;7.18;;
21671;SDS011;10997;52.242;8.168;2023-07-02T09:21:42;14.35;;;7.15;;
21671;SDS011;10997;52.242;8.168;2023-07-02T09:26:46;15.02;;;7.13;;
21671;SDS011;10997;52.242;8.168;2023-07-02T09:31:49;16.70;;;6.20;;
21671;SDS011;10997;52.242;8.168;2023-07-02T09:36:50;15.68;;;7.05;;
21671;SDS011;10997;52.242;8.168;2023-07-02T09:41:51;18.25;;;6.88;;
21671;SDS011;10997;52.242;8.168;2023-07-02T09:47:02;17.70;;;7.05;;
21671;SDS011;10997;52.242;8.168;2023-07-02T09:52:05;14.80;;;6.82;;
21671;SDS011;10997;52.242;8.168;2023-07-02T09:57:10;15.80;;;6.75;;
21671;SDS011;10997;52.242;8.168;2023-07-02T10:02:11;13.50;;;6.68;;
21671;SDS011;10997;52.242;8.168;2023-07-02T10:07:13;14.77;;;7.00;;
21671;SDS011;10997;52.242;8.168;2023-07-02T10:12:29;19.63;;;7.60;;
21671;SDS011;10997;52.242;8.168;2023-07-02T10:17:34;13.98;;;6.72;;
21671;SDS011;10997;52.242;8.168;2023-07-02T10:22:46;15.23;;;7.15;;
21671;SDS011;10997;52.242;8.168;2023-07-02T10:27:47;15.40;;;6.53;;
21671;SDS011;10997;52.242;8.168;2023-07-02T10:32:48;14.45;;;7.03;;
21671;SDS011;10997;52.242;8.168;2023-07-02T10:37:48;17.17;;;7.25;;
21671;SDS011;10997;52.242;8.168;2023-07-02T10:42:50;17.17;;;6.82;;
21671;SDS011;10997;52.242;8.168;2023-07-02T10:47:51;18.35;;;6.82;;
21671;SDS011;10997;52.242;8.168;2023-07-02T10:52:52;17.98;;;6.63;;
21671;SDS011;10997;52.242;8.168;2023-07-02T10:58:03;17.98;;;7.20;;
21671;SDS011;10997;52.242;8.168;2023-07-02T11:03:15;14.33;;;6.67;;
21671;SDS011;10997;52.242;8.168;2023-07-02T11:08:19;17.38;;;6.72;;
21671;SDS011;10997;52.242;8.168;2023-07-02T11:13:24;16.83;;;6.47;;
21671;SDS011;10997;52.242;8.168;2023-07-02T11:18:29;14.60;;;6.43;;
21671;SDS011;10997;52.242;8.168;2023-07-02T11:23:34;13.55;;;6.90;;
21671;SDS011;10997;52.242;8.168;2023-07-02T11:28:34;15.30;;;7.05;;
21671;SDS011;10997;52.242;8.168;2023-07-02T11:33:36;11.02;;;5.95;;
21671;SDS011;10997;52.242;8.168;2023-07-02T11:38:36;13.00;;;6.28;;
21671;SDS011;10997;52.242;8.168;2023-07-02T11:43:37;11.82;;;5.97;;
21671;SDS011;10997;52.242;8.168;2023-07-02T11:48:38;12.52;;;6.03;;
21671;SDS011;10997;52.242;8.168;2023-07-02T11:53:39;12.43;;;5.82;;
21671;SDS011;10997;52.242;8.168;2023-07-02T11:58:40;11.48;;;5.78;;
21671;SDS011;10997;52.242;8.168;2023-07-02T12:03:42;13.38;;;5.55;;
21671;SDS011;10997;52.242;8.168;2023-07-02T12:08:43;11.20;;;5.78;;
21671;SDS011;10997;52.242;8.168;2023-07-02T12:13:44;13.60;;;5.60;;
21671;SDS011;10997;52.242;8.168;2023-07-02T12:18:44;15.43;;;5.65;;
21671;SDS011;10997;52.242;8.168;2023-07-02T12:23:45;11.38;;;5.40;;
21671;SDS011;10997;52.242;8.168;2023-07-02T12:28:46;12.32;;;5.15;;
21671;SDS011;10997;52.242;8.168;2023-07-02T12:33:46;10.63;;;5.28;;
21671;SDS011;10997;52.242;8.168;2023-07-02T12:38:47;13.10;;;5.68;;
21671;SDS011;10997;52.242;8.168;2023-07-02T12:43:47;11.45;;;5.40;;
21671;SDS011;10997;52.242;8.168;2023-07-02T12:48:48;12.75;;;5.65;;
21671;SDS011;10997;52.242;8.168;2023-07-02T12:53:48;13.93;;;5.50;;
21671;SDS011;10997;52.242;8.168;2023-07-02T12:58:49;15.90;;;5.45;;
21671;SDS011;10997;52.242;8.168;2023-07-02T13:03:51;13.00;;;5.30;;
21671;SDS011;10997;52.242;8.168;2023-07-02T13:08:52;11.15;;;4.55;;
21671;SDS011;10997;52.242;8.168;2023-07-02T13:13:52;13.48;;;4.97;;
21671;SDS011;10997;52.242;8.168;2023-07-02T13:18:53;12.52;;;5.30;;
21671;SDS011;10997;52.242;8.168;2023-07-02T13:23:56;9.35;;;4.30;;
21671;SDS011;10997;52.242;8.168;2023-07-02T13:28:57;8.85;;;4.47;;
21671;SDS011;10997;52.242;8.168;2023-07-02T13:33:58;12.32;;;4.32;;
21671;SDS011;10997;52.242;8.168;2023-07-02T13:38:58;8.20;;;4.20;;
21671;SDS011;10997;52.242;8.168;2023-07-02T13:43:59;13.93;;;4.63;;
21671;SDS011;10997;52.242;8.168;2023-07-02T13:48:59;16.20;;;4.90;;
21671;SDS011;10997;52.242;8.168;2023-07-02T13:54:00;10.85;;;4.70;;
21671;SDS011;10997;52.242;8.168;2023-07-02T13:59:01;12.15;;;4.78;;
21671;SDS011;10997;52.242;8.168;2023-07-02T14:04:02;9.02;;;4.35;;
21671;SDS011;10997;52.242;8.168;2023-07-02T14:09:03;9.98;;;4.60;;
21671;SDS011;10997;52.242;8.168;2023-07-02T14:14:04;8.93;;;4.32;;
21671;SDS011;10997;52.242;8.168;2023-07-02T14:19:05;11.07;;;4.85;;
21671;SDS011;10997;52.242;8.168;2023-07-02T14:24:06;10.05;;;4.68;;
21671;SDS011;10997;52.242;8.168;2023-07-02T14:29:06;10.40;;;4.85;;
21671;SDS011;10997;52.242;8.168;2023-07-02T14:34:07;10.85;;;4.50;;
21671;SDS011;10997;52.242;8.168;2023-07-02T14:39:08;8.80;;;4.50;;
21671;SDS011;10997;52.242;8.168;2023-07-02T14:44:08;10.25;;;4.57;;
21671;SDS011;10997;52.242;8.168;2023-07-02T14:49:09;10.73;;;4.22;;
21671;SDS011;10997;52.242;8.168;2023-07-02T14:54:10;9.00;;;4.72;;
21671;SDS011;10997;52.242;8.168;2023-07-02T14:59:10;12.98;;;4.60;;
21671;SDS011;10997;52.242;8.168;2023-07-02T15:04:11;12.50;;;5.03;;
21671;SDS011;10997;52.242;8.168;2023-07-02T15:09:11;8.27;;;3.90;;
21671;SDS011;10997;52.242;8.168;2023-07-02T15:14:12;7.05;;;4.10;;
21671;SDS011;10997;52.242;8.168;2023-07-02T15:19:13;9.15;;;4.35;;
21671;SDS011;10997;52.242;8.168;2023-07-02T15:24:15;11.57;;;3.97;;
21671;SDS011;10997;52.242;8.168;2023-07-02T15:29:16;7.78;;;4.18;;
21671;SDS011;10997;52.242;8.168;2023-07-02T15:34:17;6.53;;;3.63;;
21671;SDS011;10997;52.242;8.168;2023-07-02T15:39:19;10.63;;;3.97;;
21671;SDS011;10997;52.242;8.168;2023-07-02T15:44:22;7.80;;;3.90;;
21671;SDS011;10997;52.242;8.168;2023-07-02T15:49:23;7.75;;;3.88;;
21671;SDS011;10997;52.242;8.168;2023-07-02T15:54:25;10.05;;;4.00;;
21671;SDS011;10997;52.242;8.168;2023-07-02T15:59:25;10.55;;;4.10;;
21671;SDS011;10997;52.242;8.168;2023-07-02T16:04:26;6.40;;;3.78;;
21671;SDS011;10997;52.242;8.168;2023-07-02T16:09:27;9.77;;;3.90;;
21671;SDS011;10997;52.242;8.168;2023-07-02T16:14:27;10.02;;;3.80;;
21671;SDS011;10997;52.242;8.168;2023-07-02T16:19:28;10.95;;;4.20;;
21671;SDS011;10997;52.242;8.168;2023-07-02T16:24:29;9.85;;;4.15;;
21671;SDS011;10997;52.242;8.168;2023-07-02T16:29:31;7.28;;;3.85;;
21671;SDS011;10997;52.242;8.168;2023-07-02T16:34:32;10.43;;;4.13;;
21671;SDS011;10997;52.242;8.168;2023-07-02T16:39:32;8.25;;;4.03;;
21671;SDS011;10997;52.242;8.168;2023-07-02T16:44:33;9.32;;;4.32;;
21671;SDS011;10997;52.242;8.168;2023-07-02T16:49:35;7.88;;;4.10;;
21671;SDS011;10997;52.242;8.168;2023-07-02T16:54:37;8.10;;;3.67;;
21671;SDS011;10997;52.242;8.168;2023-07-02T16:59:37;12.07;;;3.80;;
21671;SDS011;10997;52.242;8.168;2023-07-02T17:04:38;9.82;;;4.47;;
21671;SDS011;10997;52.242;8.168;2023-07-02T17:09:39;9.68;;;3.80;;
21671;SDS011;10997;52.242;8.168;2023-07-02T17:14:42;8.23;;;3.85;;
21671;SDS011;10997;52.242;8.168;2023-07-02T17:19:44;9.40;;;4.10;;
21671;SDS011;10997;52.242;8.168;2023-07-02T17:24:48;10.13;;;4.03;;
21671;SDS011;10997;52.242;8.168;2023-07-02T17:29:54;9.80;;;4.00;;
21671;SDS011;10997;52.242;8.168;2023-07-02T17:34:57;10.52;;;3.88;;
21671;SDS011;10997;52.242;8.168;2023-07-02T17:39:58;14.02;;;4.22;;
21671;SDS011;10997;52.242;8.168;2023-07-02T17:44:59;8.35;;;3.90;;
21671;SDS011;10997;52.242;8.168;2023-07-02T17:50:00;11.32;;;3.72;;
21671;SDS011;10997;52.242;8.168;2023-07-02T17:55:01;10.23;;;4.40;;
21671;SDS011;10997;52.242;8.168;2023-07-02T18:00:02;9.52;;;3.80;;
21671;SDS011;10997;52.242;8.168;2023-07-02T18:05:03;9.15;;;4.10;;
21671;SDS011;10997;52.242;8.168;2023-07-02T18:10:05;12.02;;;3.92;;
21671;SDS011;10997;52.242;8.168;2023-07-02T18:15:06;9.18;;;4.40;;
21671;SDS011;10997;52.242;8.168;2023-07-02T18:20:07;10.70;;;4.30;;
21671;SDS011;10997;52.242;8.168;2023-07-02T18:25:08;11.20;;;4.43;;
21671;SDS011;10997;52.242;8.168;2023-07-02T18:30:09;10.98;;;4.50;;
21671;SDS011;10997;52.242;8.168;2023-07-02T18:35:10;9.57;;;4.30;;
21671;SDS011;10997;52.242;8.168;2023-07-02T18:40:11;12.60;;;4.80;;
21671;SDS011;10997;52.242;8.168;2023-07-02T18:45:13;10.05;;;3.97;;
21671;SDS011;10997;52.242;8.168;2023-07-02T18:50:16;8.43;;;3.95;;
21671;SDS011;10997;52.242;8.168;2023-07-02T18:55:16;10.52;;;3.90;;
21671;SDS011;10997;52.242;8.168;2023-07-02T19:00:17;10.93;;;4.20;;
21671;SDS011;10997;52.242;8.168;2023-07-02T19:05:18;8.80;;;4.38;;
21671;SDS011;10997;52.242;8.168;2023-07-02T19:10:18;8.40;;;4.80;;
21671;SDS011;10997;52.242;8.168;2023-07-02T19:15:20;9.38;;;4.70;;
21671;SDS011;10997;52.242;8.168;2023-07-02T19:20:20;10.68;;;4.60;;
21671;SDS011;10997;52.242;8.168;2023-07-02T19:25:21;9.93;;;4.32;;
21671;SDS011;10997;52.242;8.168;2023-07-02T19:30:22;9.90;;;4.78;;
21671;SDS011;10997;52.242;8.168;2023-07-02T19:35:23;10.10;;;4.63;;
21671;SDS011;10997;52.242;8.168;2023-07-02T19:40:24;10.75;;;4.53;;
21671;SDS011;10997;52.242;8.168;2023-07-02T19:45:26;11.75;;;4.88;;
21671;SDS011;10997;52.242;8.168;2023-07-02T19:50:26;12.00;;;4.80;;
21671;SDS011;10997;52.242;8.168;2023-07-02T19:55:27;12.85;;;5.05;;
21671;SDS011;10997;52.242;8.168;2023-07-02T20:00:28;12.05;;;4.70;;
21671;SDS011;10997;52.242;8.168;2023-07-02T20:05:29;8.85;;;4.97;;
21671;SDS011;10997;52.242;8.168;2023-07-02T20:10:32;11.95;;;5.30;;
21671;SDS011;10997;52.242;8.168;2023-07-02T20:15:33;11.80;;;4.93;;
21671;SDS011;10997;52.242;8.168;2023-07-02T20:20:34;12.15;;;5.15;;
21671;SDS011;10997;52.242;8.168;2023-07-02T20:25:36;11.52;;;4.88;;
21671;SDS011;10997;52.242;8.168;2023-07-02T20:30:37;9.85;;;4.82;;
21671;SDS011;10997;52.242;8.168;2023-07-02T20:35:39;11.05;;;5.15;;
21671;SDS011;10997;52.242;8.168;2023-07-02T20:40:42;9.75;;;5.03;;
21671;SDS011;10997;52.242;8.168;2023-07-02T20:45:43;13.80;;;5.28;;
21671;SDS011;10997;52.242;8.168;2023-07-02T20:50:44;13.13;;;5.25;;
21671;SDS011;10997;52.242;8.168;2023-07-02T20:55:55;10.27;;;4.78;;
21671;SDS011;10997;52.242;8.168;2023-07-02T21:00:59;12.85;;;5.03;;
21671;SDS011;10997;52.242;8.168;2023-07-02T21:06:05;10.20;;;5.00;;
21671;SDS011;10997;52.242;8.168;2023-07-02T21:11:07;9.57;;;4.82;;
21671;SDS011;10997;52.242;8.168;2023-07-02T21:16:07;10.80;;;5.18;;
21671;SDS011;10997;52.242;8.168;2023-07-02T21:21:08;11.20;;;5.10;;
21671;SDS011;10997;52.242;8.168;2023-07-02T21:26:09;11.75;;;4.95;;
21671;SDS011;10997;52.242;8.168;2023-07-02T21:31:13;10.50;;;5.22;;
21671;SDS011;10997;52.242;8.168;2023-07-02T21:36:14;12.52;;;5.50;;
21671;SDS011;10997;52.242;8.168;2023-07-02T21:41:15;10.80;;;5.40;;
21671;SDS011;10997;52.242;8.168;2023-07-02T21:46:17;13.20;;;5.13;;
21671;SDS011;10997;52.242;8.168;2023-07-02T21:51:18;11.45;;;5.45;;
21671;SDS011;10997;52.242;8.168;2023-07-02T21:56:19;12.98;;;5.38;;
21671;SDS011;10997;52.242;8.168;2023-07-02T22:01:21;12.95;;;5.30;;
21671;SDS011;10997;52.242;8.168;2023-07-02T22:06:22;9.77;;;4.80;;
21671;SDS011;10997;52.242;8.168;2023-07-02T22:11:23;12.77;;;5.68;;
21671;SDS011;10997;52.242;8.168;2023-07-02T22:16:24;10.50;;;4.85;;
21671;SDS011;10997;52.242;8.168;2023-07-02T22:21:25;13.20;;;5.50;;
21671;SDS011;10997;52.242;8.168;2023-07-02T22:26:27;11.57;;;5.70;;
21671;SDS011;10997;52.242;8.168;2023-07-02T22:31:28;10.60;;;5.35;;
21671;SDS011;10997;52.242;8.168;2023-07-02T22:36:29;12.50;;;5.65;;
21671;SDS011;10997;52.242;8.168;2023-07-02T22:41:30;13.40;;;5.78;;
21671;SDS011;10997;52.242;8.168;2023-07-02T22:46:30;13.07;;;5.60;;
21671;SDS011;10997;52.242;8.168;2023-07-02T22:51:31;15.20;;;6.07;;
21671;SDS011;10997;52.242;8.168;2023-07-02T22:56:32;15.32;;;6.43;;
21671;SDS011;10997;52.242;8.168;2023-07-02T23:01:33;16.52;;;6.10;;
21671;SDS011;10997;52.242;8.168;2023-07-02T23:06:33;16.95;;;6.32;;
21671;SDS011;10997;52.242;8.168;2023-07-02T23:11:34;16.15;;;6.32;;
21671;SDS011;10997;52.242;8.168;2023-07-02T23:16:34;19.58;;;6.70;;
21671;SDS011;10997;52.242;8.168;2023-07-02T23:21:35;18.00;;;6.82;;
21671;SDS011;10997;52.242;8.168;2023-07-02T23:26:36;18.40;;;6.90;;
21671;SDS011;10997;52.242;8.168;2023-07-02T23:31:37;16.73;;;6.63;;
21671;SDS011;10997;52.242;8.168;2023-07-02T23:36:38;17.60;;;6.22;;
21671;SDS011;10997;52.242;8.168;2023-07-02T23:41:39;24.98;;;7.28;;
21671;SDS011;10997;52.242;8.168;2023-07-02T23:46:39;20.38;;;6.82;;
21671;SDS011;10997;52.242;8.168;2023-07-02T23:51:41;15.75;;;5.85;;
21671;SDS011;10997;52.242;8.168;2023-07-02T23:56:42;20.33;;;6.43;;
